Time;durP1;ratioP1;P1;durP2;ratioP2;P2;SDS_P1;SDS_P2;PMS_P1;PMS_P2;Temp;Humidity;BMP_temperature;BMP_pressure;BME280_temperature;BME280_humidity;BME280_pressure;Samples;Min_cycle;Max_cycle;Signal;HPM_P1;HPM_P2
2023/05/16 00:00:16;;;;;;;16.38;15.07;;;;;;;12.82;100.00;98389.56;4190075;28;20245;-45
2023/05/16 00:02:18;;;;;;;15.88;14.48;;;;;;;12.77;100.00;98384.03;4178680;28;20211;-45
2023/05/16 00:04:20;;;;;;;15.43;14.23;;;;;;;12.75;100.00;98383.47;4175164;28;20205;-46
2023/05/16 00:06:22;;;;;;;15.38;14.07;;;;;;;12.81;100.00;98374.19;4156294;28;20208;-45
2023/05/16 00:08:23;;;;;;;16.55;15.18;;;;;;;12.83;100.00;98380.22;4175210;28;20266;-46
2023/05/16 00:10:25;;;;;;;16.60;15.18;;;;;;;12.74;100.00;98373.59;4175416;28;20211;-45
2023/05/16 00:12:28;;;;;;;15.13;13.85;;;;;;;12.76;100.00;98381.56;4189362;28;20203;-46
2023/05/16 00:14:30;;;;;;;15.98;14.68;;;;;;;12.79;100.00;98376.38;4178085;28;20215;-45
2023/05/16 00:16:31;;;;;;;15.57;14.38;;;;;;;12.79;100.00;98376.38;4157694;28;20232;-45
2023/05/16 00:18:37;;;;;;;14.85;13.75;;;;;;;12.85;100.00;98378.03;4177147;28;20611;-46
2023/05/16 00:20:40;;;;;;;14.77;13.27;;;;;;;12.85;100.00;98375.28;4186775;28;20301;-46
2023/05/16 00:22:42;;;;;;;12.90;11.88;;;;;;;12.81;100.00;98373.34;4187806;28;20199;-45
2023/05/16 00:24:44;;;;;;;15.77;14.60;;;;;;;12.80;100.00;98378.03;4174979;28;22596;-46
2023/05/16 00:26:45;;;;;;;17.25;13.82;;;;;;;12.78;100.00;98376.63;4155579;28;20216;-46
2023/05/16 00:28:47;;;;;;;15.50;14.27;;;;;;;12.84;100.00;98381.06;4163529;28;20217;-45
2023/05/16 00:30:49;;;;;;;15.00;13.82;;;;;;;12.74;100.00;98373.59;4175525;28;20656;-45
2023/05/16 00:32:51;;;;;;;14.50;13.32;;;;;;;12.75;100.00;98375.25;4193284;28;20303;-46
2023/05/16 00:34:52;;;;;;;16.05;14.77;;;;;;;12.77;100.00;98373.03;4175352;28;20226;-46
2023/05/16 00:36:54;;;;;;;15.52;14.13;;;;;;;12.81;100.00;98371.44;4159648;28;20255;-46
2023/05/16 00:38:56;;;;;;;17.17;15.70;;;;;;;12.76;100.00;98374.16;4193433;28;20207;-46
2023/05/16 00:40:57;;;;;;;16.05;14.85;;;;;;;12.74;100.00;98379.09;4174210;28;20651;-46
2023/05/16 00:42:59;;;;;;;16.20;14.98;;;;;;;12.66;100.00;98387.84;4192287;28;20249;-46
2023/05/16 00:45:01;;;;;;;16.33;15.07;;;;;;;12.67;100.00;98385.91;4175249;28;20718;-45
2023/05/16 00:47:03;;;;;;;17.08;15.68;;;;;;;12.62;100.00;98383.13;4176504;28;20192;-46
2023/05/16 00:49:05;;;;;;;14.70;13.40;;;;;;;12.54;100.00;98391.88;4158792;28;20688;-45
2023/05/16 00:51:08;;;;;;;15.07;13.98;;;;;;;12.63;100.00;98382.84;4173392;28;20230;-47
2023/05/16 00:53:10;;;;;;;16.50;15.20;;;;;;;12.53;100.00;98388.31;4176278;28;20279;-45
2023/05/16 00:55:12;;;;;;;15.93;14.25;;;;;;;12.60;100.00;98388.91;4187972;28;20211;-45
2023/05/16 00:57:15;;;;;;;15.77;14.52;;;;;;;12.56;100.00;98382.28;4187123;28;20227;-45
2023/05/16 00:59:16;;;;;;;14.57;13.02;;;;;;;12.52;100.00;98381.19;4170598;28;20236;-45
2023/05/16 01:01:20;;;;;;;14.85;13.20;;;;;;;12.58;100.00;98380.09;4170919;28;20243;-45
2023/05/16 01:03:22;;;;;;;14.73;13.55;;;;;;;12.59;100.00;98384.50;4157593;28;20304;-46
2023/05/16 01:05:24;;;;;;;15.48;13.95;;;;;;;12.49;100.00;98372.63;4167321;28;20212;-46
2023/05/16 01:07:26;;;;;;;13.70;12.57;;;;;;;12.46;100.00;98381.41;4173048;28;20208;-46
2023/05/16 01:09:28;;;;;;;14.77;13.40;;;;;;;12.50;100.00;98377.03;4169931;28;20300;-45
2023/05/16 01:11:35;;;;;;;14.57;13.07;;;;;;;12.54;100.00;98378.13;4173283;28;20236;-45
2023/05/16 01:14:09;;;;;;;15.55;13.73;;;;;;;12.38;100.00;98379.16;4176124;28;20227;-45
2023/05/16 01:16:30;;;;;;;13.32;12.20;;;;;;;12.42;100.00;98375.59;4173197;28;20263;-45
2023/05/16 01:18:55;;;;;;;12.95;11.88;;;;;;;12.50;100.00;98372.34;4179019;28;20622;-45
2023/05/16 01:21:04;;;;;;;12.85;11.65;;;;;;;12.54;100.00;98378.97;4175088;28;20592;-45
2023/05/16 01:23:23;;;;;;;14.65;13.40;;;;;;;12.46;100.00;98379.50;4178242;28;20658;-45
2023/05/16 01:25:46;;;;;;;16.45;12.23;;;;;;;12.46;100.00;98375.91;4188743;28;20232;-44
2023/05/16 01:27:48;;;;;;;13.32;12.02;;;;;;;12.51;100.00;98384.19;4182056;28;20673;-45
2023/05/16 01:29:55;;;;;;;12.80;11.52;;;;;;;12.54;100.00;98384.47;4182065;28;20649;-46
2023/05/16 01:31:57;;;;;;;12.82;11.82;;;;;;;12.38;100.00;98379.97;4178235;28;20268;-45
2023/05/16 01:33:59;;;;;;;13.82;12.50;;;;;;;12.48;100.00;98379.19;4182011;28;20340;-46
2023/05/16 01:36:13;;;;;;;13.20;12.10;;;;;;;12.54;100.00;98380.88;4164512;28;20235;-45
2023/05/16 01:38:25;;;;;;;13.95;12.55;;;;;;;12.31;100.00;98373.88;4181924;28;20214;-45
2023/05/16 01:40:55;;;;;;;12.88;11.65;;;;;;;12.35;100.00;98374.19;4185938;28;20219;-45
2023/05/16 01:42:59;;;;;;;13.43;12.32;;;;;;;12.32;100.00;98374.72;4177399;28;20215;-45
2023/05/16 01:45:16;;;;;;;15.30;13.93;;;;;;;12.24;100.00;98378.78;4194524;28;20220;-46
2023/05/16 01:47:20;;;;;;;12.68;11.65;;;;;;;12.31;100.00;98384.84;4191210;28;20234;-45
2023/05/16 01:49:29;;;;;;;12.38;11.20;;;;;;;12.34;100.00;98384.34;4169656;28;20248;-45
2023/05/16 01:51:34;;;;;;;12.35;11.35;;;;;;;12.38;100.00;98385.44;4169721;28;20350;-45
2023/05/16 01:53:37;;;;;;;12.23;10.65;;;;;;;12.45;100.00;98391.53;4174687;28;20617;-45
2023/05/16 01:55:47;;;;;;;12.32;11.23;;;;;;;12.46;100.00;98386.88;4176202;28;20552;-45
2023/05/16 01:57:50;;;;;;;12.25;11.15;;;;;;;12.49;100.00;98386.34;4177995;28;20620;-45
2023/05/16 01:59:52;;;;;;;11.88;10.82;;;;;;;12.46;100.00;98386.88;4191719;28;20747;-46
2023/05/16 02:01:56;;;;;;;12.15;11.15;;;;;;;12.51;100.00;98389.66;4173409;28;20224;-46
2023/05/16 02:03:58;;;;;;;11.95;10.73;;;;;;;12.56;100.00;98393.25;4188464;28;20212;-44
2023/05/16 02:06:00;;;;;;;12.25;10.98;;;;;;;12.52;100.00;98392.16;4178268;28;20670;-45
2023/05/16 02:08:02;;;;;;;12.15;11.07;;;;;;;12.49;100.00;98392.66;4189943;28;20290;-46
2023/05/16 02:10:04;;;;;;;12.73;11.52;;;;;;;12.52;100.00;98392.16;4178728;28;20207;-44
2023/05/16 02:12:06;;;;;;;12.18;11.00;;;;;;;12.46;100.00;98398.69;4175326;28;20235;-45
2023/05/16 02:14:08;;;;;;;11.32;10.32;;;;;;;12.50;100.00;98390.75;4192012;28;20203;-46
2023/05/16 02:16:10;;;;;;;12.48;11.48;;;;;;;12.57;100.00;98394.09;4191918;28;20678;-46
2023/05/16 02:18:12;;;;;;;12.05;10.73;;;;;;;12.58;100.00;98395.75;4187382;28;20577;-45
2023/05/16 02:20:14;;;;;;;13.23;12.02;;;;;;;12.50;100.00;98399.81;4172868;28;20228;-44
2023/05/16 02:22:16;;;;;;;9.23;8.52;;;;;;;12.46;100.00;98398.69;4176526;28;20263;-46
2023/05/16 02:24:18;;;;;;;11.93;10.82;;;;;;;12.40;100.00;98393.44;4171108;28;20201;-45
2023/05/16 02:26:19;;;;;;;13.18;11.93;;;;;;;12.32;100.00;98403.00;4191267;28;20654;-45
2023/05/16 02:28:21;;;;;;;9.23;8.40;;;;;;;12.40;100.00;98397.00;4192020;28;20253;-46
2023/05/16 02:30:23;;;;;;;12.02;10.93;;;;;;;12.19;100.00;98403.44;4178586;28;20299;-45
2023/05/16 02:32:25;;;;;;;12.18;11.15;;;;;;;12.23;100.00;98401.81;4176004;28;20675;-45
2023/05/16 02:34:27;;;;;;;11.13;10.13;;;;;;;12.26;100.00;98398.56;4178506;28;20254;-45
2023/05/16 02:36:29;;;;;;;11.10;10.10;;;;;;;12.17;100.00;98400.13;4176413;28;20780;-44
2023/05/16 02:38:30;;;;;;;13.35;11.93;;;;;;;12.11;100.00;98395.69;4176259;28;20215;-45
2023/05/16 02:40:32;;;;;;;11.18;10.27;;;;;;;12.12;100.00;98397.34;4173735;28;20258;-46
2023/05/16 02:42:34;;;;;;;12.02;10.95;;;;;;;12.10;100.00;98399.53;4192080;28;20237;-45
2023/05/16 02:44:36;;;;;;;11.52;9.65;;;;;;;12.10;100.00;98405.00;4176249;28;20216;-44
2023/05/16 02:46:37;;;;;;;10.82;9.90;;;;;;;12.24;100.00;98402.66;4176079;28;20631;-46
2023/05/16 02:48:39;;;;;;;13.32;12.18;;;;;;;12.08;100.00;98401.72;4161076;28;20654;-45
2023/05/16 02:50:41;;;;;;;12.13;10.88;;;;;;;12.13;100.00;98401.75;4183386;28;20774;-44
2023/05/16 02:52:43;;;;;;;12.10;11.13;;;;;;;12.12;100.00;98402.81;4174114;28;20208;-45
2023/05/16 02:54:45;;;;;;;13.95;10.07;;;;;;;12.17;100.00;98399.31;4177514;28;20235;-45
2023/05/16 02:57:00;;;;;;;9.75;8.85;;;;;;;12.27;100.00;98411.19;4183283;28;20228;-45
2023/05/16 02:59:05;;;;;;;10.60;9.65;;;;;;;12.14;100.00;98403.41;4162532;28;20636;-45
2023/05/16 03:01:07;;;;;;;10.98;10.05;;;;;;;12.05;100.00;98406.91;4177658;28;20753;-45
2023/05/16 03:03:09;;;;;;;11.68;10.63;;;;;;;12.14;100.00;98405.31;4180149;28;20200;-46
2023/05/16 03:05:11;;;;;;;10.35;9.32;;;;;;;12.05;100.00;98401.41;4180027;28;20688;-44
2023/05/16 03:07:13;;;;;;;12.93;11.82;;;;;;;12.09;100.00;98414.34;4189624;28;20260;-44
2023/05/16 03:09:15;;;;;;;10.40;9.48;;;;;;;12.19;100.00;98411.69;4157848;28;20209;-45
2023/05/16 03:11:21;;;;;;;10.20;9.32;;;;;;;12.18;100.00;98418.22;4177018;28;20278;-44
2023/05/16 03:13:23;;;;;;;9.88;8.98;;;;;;;12.21;100.00;98417.72;4191546;28;20230;-45
2023/05/16 03:15:24;;;;;;;10.77;9.68;;;;;;;12.25;100.00;98412.53;4174962;28;20342;-45
2023/05/16 03:17:27;;;;;;;11.32;8.85;;;;;;;12.12;100.00;98418.47;4174296;28;20204;-45
2023/05/16 03:19:29;;;;;;;9.45;8.63;;;;;;;12.25;100.00;98418.84;4175177;28;20666;-45
2023/05/16 03:21:31;;;;;;;9.40;8.60;;;;;;;12.13;100.00;98420.97;4174898;28;20266;-45
2023/05/16 03:23:32;;;;;;;8.57;7.78;;;;;;;12.15;100.00;98421.50;4158941;28;20690;-45
2023/05/16 03:25:35;;;;;;;11.73;10.55;;;;;;;12.08;100.00;98418.16;4175693;28;20200;-45
2023/05/16 03:27:37;;;;;;;10.18;9.25;;;;;;;11.93;100.00;98420.78;4165017;28;20208;-46
2023/05/16 03:29:38;;;;;;;10.43;8.98;;;;;;;11.96;100.00;98420.25;4174751;28;20546;-46
2023/05/16 03:31:41;;;;;;;10.13;8.52;;;;;;;12.04;100.00;98422.50;4175669;28;20234;-44
2023/05/16 03:33:43;;;;;;;9.95;9.07;;;;;;;12.08;100.00;98429.13;4173531;28;20200;-45
2023/05/16 03:35:45;;;;;;;8.43;7.72;;;;;;;12.06;100.00;98425.84;4174750;28;20315;-44
2023/05/16 03:37:49;;;;;;;16.73;9.30;;;;;;;12.13;100.00;98426.44;4161503;28;20271;-48
2023/05/16 03:39:51;;;;;;;11.02;9.93;;;;;;;12.23;100.00;98432.00;4173782;28;20266;-45
2023/05/16 03:41:56;;;;;;;10.35;9.35;;;;;;;12.13;100.00;98426.44;4176173;28;20227;-45
2023/05/16 03:43:57;;;;;;;9.55;8.73;;;;;;;12.11;100.00;98425.84;4175697;28;20199;-45
2023/05/16 03:46:03;;;;;;;9.48;8.50;;;;;;;12.09;100.00;98428.03;4173751;28;20679;-45
2023/05/16 03:48:05;;;;;;;8.65;7.95;;;;;;;12.10;100.00;98426.94;4186422;28;22320;-44
2023/05/16 03:50:08;;;;;;;9.02;8.13;;;;;;;12.08;100.00;98429.13;4175714;28;20212;-44
2023/05/16 03:52:10;;;;;;;9.00;8.20;;;;;;;12.13;100.00;98431.94;4187855;28;20228;-45
2023/05/16 03:54:12;;;;;;;9.18;8.27;;;;;;;12.12;100.00;98435.72;4168678;28;20326;-45
2023/05/16 03:56:13;;;;;;;10.65;8.55;;;;;;;12.12;100.00;98433.00;4171627;28;20669;-45
2023/05/16 03:58:15;;;;;;;9.18;8.38;;;;;;;12.19;100.00;98436.38;4176839;28;20306;-45
2023/05/16 04:00:17;;;;;;;9.00;8.20;;;;;;;11.92;100.00;98441.03;4173087;28;20208;-44
2023/05/16 04:02:19;;;;;;;8.60;7.88;;;;;;;11.96;100.00;98444.13;4191665;28;20216;-46
2023/05/16 04:04:21;;;;;;;8.63;7.47;;;;;;;11.93;100.00;98442.72;4184095;28;20235;-44
2023/05/16 04:06:23;;;;;;;8.48;7.40;;;;;;;11.95;100.00;98448.78;4175649;28;20223;-45
2023/05/16 04:08:25;;;;;;;11.65;7.70;;;;;;;11.98;100.00;98453.72;4173283;28;20231;-44
2023/05/16 04:10:27;;;;;;;7.03;6.32;;;;;;;11.97;100.00;98454.81;4172904;28;20291;-44
2023/05/16 04:12:28;;;;;;;14.35;8.00;;;;;;;11.91;100.00;98450.38;4174594;28;20208;-45
2023/05/16 04:14:30;;;;;;;6.95;6.35;;;;;;;11.87;100.00;98456.63;4175071;28;20243;-45
2023/05/16 04:16:32;;;;;;;9.27;7.70;;;;;;;11.81;100.00;98464.00;4160939;28;20908;-44
2023/05/16 04:18:34;;;;;;;6.05;5.45;;;;;;;11.89;100.00;98463.50;4178743;28;21835;-44
2023/05/16 04:20:36;;;;;;;8.88;6.50;;;;;;;11.91;100.00;98460.53;4159064;28;20796;-45
2023/05/16 04:22:38;;;;;;;6.60;6.03;;;;;;;11.98;100.00;98464.69;4171663;28;20243;-44
2023/05/16 04:24:39;;;;;;;5.25;4.72;;;;;;;11.93;100.00;98470.16;4159504;28;20227;-45
2023/05/16 04:26:41;;;;;;;5.47;4.47;;;;;;;11.95;100.00;98473.44;4173886;28;20207;-45
2023/05/16 04:28:43;;;;;;;4.47;4.05;;;;;;;11.93;100.00;98470.16;4170783;28;20200;-45
2023/05/16 04:30:46;;;;;;;5.28;4.10;;;;;;;11.78;100.00;98467.22;4172634;28;20275;-45
2023/05/16 04:32:48;;;;;;;4.60;4.13;;;;;;;11.68;100.00;98469.88;4173644;28;20576;-45
2023/05/16 04:34:52;;;;;;;5.53;3.40;;;;;;;11.77;100.00;98465.59;4175811;28;20211;-45
2023/05/16 04:36:54;;;;;;;7.65;3.97;;;;;;;11.64;100.00;98476.16;4172032;28;20319;-45
2023/05/16 04:38:56;;;;;;;4.90;3.10;;;;;;;11.74;100.00;98466.13;4172810;28;20211;-45
2023/05/16 04:40:58;;;;;;;4.72;4.32;;;;;;;11.83;100.00;98477.44;4172758;28;20263;-44
2023/05/16 04:43:00;;;;;;;4.75;4.20;;;;;;;11.80;100.00;98473.31;4173672;28;20246;-44
2023/05/16 04:45:02;;;;;;;4.18;3.28;;;;;;;11.91;100.00;98469.56;4153853;28;20631;-44
2023/05/16 04:47:04;;;;;;;3.15;2.85;;;;;;;11.91;100.00;98472.31;4168015;28;20629;-45
2023/05/16 04:49:07;;;;;;;3.95;2.80;;;;;;;11.88;100.00;98470.09;4180984;28;20250;-45
2023/05/16 04:51:08;;;;;;;3.30;3.00;;;;;;;11.94;100.00;98474.53;4175395;28;20235;-45
2023/05/16 04:53:10;;;;;;;2.90;2.58;;;;;;;11.93;100.00;98480.28;4180496;28;20215;-45
2023/05/16 04:55:12;;;;;;;3.45;2.85;;;;;;;11.73;100.00;98472.69;4178668;28;20204;-44
2023/05/16 04:57:14;;;;;;;1.92;1.67;;;;;;;11.87;100.00;98481.31;4194240;28;20309;-45
2023/05/16 04:59:16;;;;;;;2.08;1.92;;;;;;;11.75;100.00;98481.47;4175769;28;20242;-45
2023/05/16 05:01:17;;;;;;;1.80;1.70;;;;;;;11.87;100.00;98482.16;4174225;28;20266;-45
2023/05/16 05:03:19;;;;;;;2.40;1.80;;;;;;;11.67;100.00;98481.94;4161643;28;20254;-45
2023/05/16 05:05:21;;;;;;;2.45;2.25;;;;;;;11.60;100.00;98491.44;4176990;28;20218;-45
2023/05/16 05:07:27;;;;;;;1.60;1.40;;;;;;;11.66;100.00;98485.78;4175408;28;20238;-45
2023/05/16 05:09:29;;;;;;;1.63;1.45;;;;;;;11.65;100.00;98495.06;4173560;28;20207;-45
2023/05/16 05:11:31;;;;;;;1.90;1.52;;;;;;;11.76;100.00;98491.34;4176946;28;20672;-46
2023/05/16 05:13:33;;;;;;;3.25;1.38;;;;;;;11.77;100.00;98492.19;4193372;28;20214;-46
2023/05/16 05:15:34;;;;;;;1.30;1.10;;;;;;;11.66;100.00;98496.72;4175844;28;21214;-45
2023/05/16 05:17:36;;;;;;;1.20;1.20;;;;;;;11.67;100.00;98498.38;4173635;28;20710;-45
2023/05/16 05:19:38;;;;;;;1.13;1.00;;;;;;;11.78;100.00;98500.13;4152857;28;20216;-46
2023/05/16 05:21:40;;;;;;;1.95;1.10;;;;;;;11.80;100.00;98508.09;4174454;28;20289;-44
2023/05/16 05:23:42;;;;;;;1.33;1.00;;;;;;;11.77;100.00;98505.91;4165644;28;20212;-45
2023/05/16 05:25:44;;;;;;;1.95;1.27;;;;;;;11.70;100.00;98506.09;4156725;28;20212;-45
2023/05/16 05:27:47;;;;;;;1.20;1.10;;;;;;;11.63;100.00;98508.19;4188641;28;20602;-47
2023/05/16 05:29:48;;;;;;;1.38;1.33;;;;;;;11.75;100.00;98500.66;4189644;28;20708;-44
2023/05/16 05:31:50;;;;;;;1.30;1.20;;;;;;;11.80;100.00;98508.94;4175196;28;20279;-46
2023/05/16 05:33:53;;;;;;;2.38;0.95;;;;;;;11.79;100.00;98501.81;4178799;28;20203;-45
2023/05/16 05:35:56;;;;;;;1.70;1.60;;;;;;;11.75;100.00;98510.78;4174263;28;20235;-45
2023/05/16 05:37:57;;;;;;;1.38;1.27;;;;;;;11.82;100.00;98509.50;4189912;28;20749;-45
2023/05/16 05:40:00;;;;;;;2.42;1.20;;;;;;;11.74;100.00;98509.97;4175757;28;20228;-45
2023/05/16 05:42:04;;;;;;;1.35;1.08;;;;;;;11.82;100.00;98501.28;4176601;28;20229;-45
2023/05/16 05:44:06;;;;;;;1.50;1.30;;;;;;;11.67;100.00;98509.34;4175372;28;20204;-46
2023/05/16 05:46:08;;;;;;;1.45;1.35;;;;;;;11.76;100.00;98507.78;4177235;28;20214;-45
2023/05/16 05:48:11;;;;;;;1.08;1.08;;;;;;;11.78;100.00;98515.78;4172787;28;20215;-45
2023/05/16 05:50:15;;;;;;;1.35;1.27;;;;;;;11.56;100.00;98507.53;4175318;28;20203;-45
2023/05/16 05:52:17;;;;;;;1.52;1.42;;;;;;;11.48;100.00;98516.22;4189705;28;20306;-46
2023/05/16 05:54:20;;;;;;;1.13;1.10;;;;;;;11.51;100.00;98512.94;4159473;28;20215;-45
2023/05/16 05:56:23;;;;;;;1.20;1.20;;;;;;;11.41;100.00;98514.75;4173874;28;20666;-47
2023/05/16 05:58:25;;;;;;;1.40;1.30;;;;;;;11.60;100.00;98516.09;4195937;28;20232;-45
2023/05/16 06:00:28;;;;;;;1.30;1.17;;;;;;;11.48;100.00;98518.97;4176327;28;20240;-45
2023/05/16 06:02:30;;;;;;;6.25;1.65;;;;;;;11.59;100.00;98520.78;4177996;28;20212;-47
2023/05/16 06:04:32;;;;;;;1.30;1.20;;;;;;;11.57;100.00;98517.41;4159033;28;20204;-45
2023/05/16 06:06:35;;;;;;;1.17;1.17;;;;;;;11.53;100.00;98524.50;4191066;28;20211;-46
2023/05/16 06:08:37;;;;;;;1.75;1.65;;;;;;;11.69;100.00;98529.09;4175018;28;20287;-46
2023/05/16 06:10:39;;;;;;;1.13;1.13;;;;;;;11.62;100.00;98523.00;4175561;28;20231;-46
2023/05/16 06:12:41;;;;;;;2.67;1.33;;;;;;;11.64;100.00;98525.47;4176991;28;20200;-46
2023/05/16 06:14:44;;;;;;;1.63;1.30;;;;;;;11.66;100.00;98526.88;4174477;28;20234;-46
2023/05/16 06:16:47;;;;;;;1.25;1.20;;;;;;;11.71;100.00;98529.66;4175414;28;20243;-46
2023/05/16 06:18:49;;;;;;;1.35;1.35;;;;;;;11.84;100.00;98532.00;4190821;28;20219;-45
2023/05/16 06:20:54;;;;;;;0.90;0.90;;;;;;;11.87;100.00;98526.03;4174593;28;20590;-47
2023/05/16 06:22:57;;;;;;;1.20;1.10;;;;;;;11.93;100.00;98535.97;4176972;28;20208;-46
2023/05/16 06:24:59;;;;;;;1.20;0.90;;;;;;;11.93;100.00;98540.59;4179756;28;20203;-46
2023/05/16 06:27:01;;;;;;;1.17;1.10;;;;;;;11.75;100.00;98533.56;4172293;28;20240;-47
2023/05/16 06:29:14;;;;;;;1.55;1.45;;;;;;;11.86;100.00;98540.81;4191455;28;20203;-45
2023/05/16 06:31:16;;;;;;;1.30;1.20;;;;;;;11.87;100.00;98556.19;4177291;28;20758;-45
2023/05/16 06:33:18;;;;;;;1.13;1.13;;;;;;;11.86;100.00;98546.31;4179953;28;20309;-45
2023/05/16 06:35:28;;;;;;;1.08;0.98;;;;;;;11.82;100.00;98550.63;4176494;28;20200;-44
2023/05/16 06:37:30;;;;;;;1.50;1.40;;;;;;;11.73;100.00;98549.44;4195316;28;20592;-45
2023/05/16 06:39:32;;;;;;;0.90;0.90;;;;;;;11.77;100.00;98553.31;4160722;28;20744;-46
2023/05/16 06:41:34;;;;;;;1.08;1.08;;;;;;;11.92;100.00;98552.66;4172753;28;20696;-46
2023/05/16 06:43:36;;;;;;;0.85;0.85;;;;;;;11.90;100.00;98550.16;4171990;28;20205;-46
2023/05/16 06:45:39;;;;;;;0.80;0.60;;;;;;;11.86;99.66;98550.94;4177592;28;20204;-47
2023/05/16 06:47:41;;;;;;;4.07;0.98;;;;;;;11.50;100.00;98552.41;4177658;28;20236;-46
2023/05/16 06:49:47;;;;;;;0.90;0.90;;;;;;;11.45;100.00;98566.03;4181745;28;20576;-46
2023/05/16 06:51:49;;;;;;;1.02;1.02;;;;;;;11.51;100.00;98554.06;4156275;28;20260;-45
2023/05/16 06:53:51;;;;;;;0.75;0.75;;;;;;;11.54;100.00;98555.47;4194932;28;20221;-45
2023/05/16 06:55:54;;;;;;;1.45;0.90;;;;;;;11.39;100.00;98558.00;4163564;28;20207;-46
2023/05/16 06:57:57;;;;;;;1.10;1.00;;;;;;;11.38;100.00;98557.16;4180367;28;20628;-47
2023/05/16 06:59:59;;;;;;;0.90;0.88;;;;;;;11.34;100.00;98563.41;4160981;28;20687;-45
2023/05/16 07:02:05;;;;;;;0.90;0.90;;;;;;;11.25;100.00;98562.22;4176062;28;22026;-45
2023/05/16 07:04:08;;;;;;;0.70;0.70;;;;;;;11.14;100.00;98563.13;4184098;28;20199;-46
2023/05/16 07:06:10;;;;;;;0.70;0.70;;;;;;;11.13;100.00;98570.53;4182688;28;20210;-47
2023/05/16 07:08:15;;;;;;;0.85;0.85;;;;;;;11.11;100.00;98575.44;4164894;28;20200;-46
2023/05/16 07:10:18;;;;;;;0.70;0.70;;;;;;;11.10;100.00;98576.50;4179278;28;20199;-47
2023/05/16 07:12:32;;;;;;;0.80;0.80;;;;;;;11.03;100.00;98578.59;4166307;28;20201;-46
2023/05/16 07:14:35;;;;;;;0.80;0.80;;;;;;;11.10;100.00;98573.78;4194762;28;20690;-47
2023/05/16 07:16:37;;;;;;;1.08;1.08;;;;;;;11.13;100.00;98581.50;4164713;28;20235;-46
2023/05/16 07:18:39;;;;;;;0.82;0.82;;;;;;;10.99;100.00;98590.31;4179100;28;20223;-46
2023/05/16 07:20:55;;;;;;;0.90;0.90;;;;;;;11.14;100.00;98585.91;4176727;28;20254;-46
2023/05/16 07:22:58;;;;;;;1.52;1.17;;;;;;;11.20;100.00;98590.38;4177727;28;20242;-46
2023/05/16 07:25:00;;;;;;;1.90;1.20;;;;;;;11.25;100.00;98598.63;4182059;28;20208;-46
2023/05/16 07:27:05;;;;;;;0.90;0.90;;;;;;;11.24;100.00;98596.97;4163263;28;20200;-45
2023/05/16 07:29:17;;;;;;;0.80;0.80;;;;;;;11.22;100.00;98610.09;4181804;28;20204;-46
2023/05/16 07:31:20;;;;;;;2.05;1.10;;;;;;;11.15;100.00;98609.47;4176844;28;20239;-45
2023/05/16 07:33:22;;;;;;;0.90;0.90;;;;;;;11.22;100.00;98606.53;4188053;28;20208;-46
2023/05/16 07:35:25;;;;;;;0.80;0.80;;;;;;;11.18;100.00;98617.16;4177469;28;20211;-46
2023/05/16 07:37:42;;;;;;;0.93;0.70;;;;;;;11.19;100.00;98609.78;4178287;28;20562;-46
2023/05/16 07:39:45;;;;;;;0.85;0.85;;;;;;;11.10;100.00;98620.31;4178380;28;20210;-46
2023/05/16 07:41:50;;;;;;;0.70;0.70;;;;;;;11.05;100.00;98631.19;4179244;28;20251;-46
2023/05/16 07:43:52;;;;;;;0.73;0.73;;;;;;;11.13;100.00;98633.53;4173590;23;20320;-45
2023/05/16 07:45:55;;;;;;;0.90;0.90;;;;;;;11.08;100.00;98630.72;4138233;28;20707;-44
2023/05/16 07:47:59;;;;;;;0.95;0.90;;;;;;;10.99;100.00;98632.22;4142966;28;20217;-44
2023/05/16 07:50:01;;;;;;;0.90;0.90;;;;;;;10.99;100.00;98642.34;4161056;28;20213;-46
2023/05/16 07:52:04;;;;;;;0.73;0.73;;;;;;;11.08;100.00;98647.16;4142426;28;20279;-44
2023/05/16 07:54:06;;;;;;;0.60;0.60;;;;;;;11.09;100.00;98637.84;4139632;28;20312;-45
2023/05/16 07:56:08;;;;;;;0.93;0.85;;;;;;;11.11;100.00;98651.28;4138634;28;20685;-44
2023/05/16 07:58:10;;;;;;;0.98;0.68;;;;;;;11.18;100.00;98647.28;4143059;28;20276;-45
2023/05/16 08:00:12;;;;;;;1.35;0.90;;;;;;;11.11;99.69;98643.91;4136923;28;20240;-44
2023/05/16 08:02:15;;;;;;;0.90;0.80;;;;;;;11.10;100.00;98649.63;4138814;28;20676;-46
2023/05/16 08:04:17;;;;;;;6.90;0.80;;;;;;;11.16;100.00;98648.63;4122520;28;20206;-45
2023/05/16 08:06:19;;;;;;;0.80;0.80;;;;;;;11.10;99.24;98650.44;4139999;28;20202;-45
2023/05/16 08:08:21;;;;;;;0.75;0.75;;;;;;;11.01;99.79;98653.84;4142065;28;20220;-45
2023/05/16 08:10:23;;;;;;;0.80;0.80;;;;;;;10.97;99.83;98650.78;4139626;28;20591;-44
2023/05/16 08:12:26;;;;;;;2.13;0.93;;;;;;;10.99;100.00;98662.34;4142518;28;20213;-48
2023/05/16 08:14:31;;;;;;;0.80;0.80;;;;;;;10.97;100.00;98656.25;4141665;28;20209;-44
2023/05/16 08:16:33;;;;;;;0.85;0.85;;;;;;;10.90;100.00;98661.06;4140647;28;20206;-45
2023/05/16 08:18:35;;;;;;;0.60;0.60;;;;;;;10.83;100.00;98665.06;4140858;28;20221;-44
2023/05/16 08:20:36;;;;;;;0.75;0.75;;;;;;;11.01;100.00;98667.56;4137501;28;20710;-45
2023/05/16 08:22:38;;;;;;;2.70;0.80;;;;;;;10.94;99.23;98667.72;4140139;28;20217;-45
2023/05/16 08:24:40;;;;;;;0.90;0.77;;;;;;;11.03;99.44;98665.41;4139189;28;20209;-44
2023/05/16 08:26:42;;;;;;;1.48;0.75;;;;;;;10.83;98.70;98654.13;4125395;28;20249;-45
2023/05/16 08:28:44;;;;;;;10.43;0.75;;;;;;;10.94;98.70;98662.25;4143849;28;20205;-45
2023/05/16 08:30:46;;;;;;;1.77;1.20;;;;;;;10.97;98.47;98667.22;4122472;28;20367;-45
2023/05/16 08:32:49;;;;;;;0.70;0.70;;;;;;;11.03;98.34;98668.16;4141113;28;20235;-45
2023/05/16 08:34:52;;;;;;;0.63;0.63;;;;;;;10.88;98.62;98667.06;4126180;28;20214;-45
2023/05/16 08:36:53;;;;;;;0.60;0.60;;;;;;;11.02;99.12;98667.31;4141143;28;20610;-44
2023/05/16 08:38:55;;;;;;;0.80;0.80;;;;;;;11.01;97.82;98671.13;4143230;28;20225;-45
2023/05/16 08:40:57;;;;;;;0.75;0.75;;;;;;;10.87;98.13;98670.88;4124082;28;20726;-46
2023/05/16 08:43:00;;;;;;;0.98;0.98;;;;;;;11.03;98.53;98666.22;4140969;28;20276;-44
2023/05/16 08:45:02;;;;;;;0.60;0.60;;;;;;;11.07;97.52;98666.56;4142563;28;20225;-44
2023/05/16 08:47:12;;;;;;;1.08;0.90;;;;;;;10.90;95.49;98671.22;4137662;28;20224;-46
2023/05/16 08:49:17;;;;;;;0.80;0.77;;;;;;;11.02;96.30;98675.53;4125621;28;20296;-45
2023/05/16 08:51:24;;;;;;;0.77;0.68;;;;;;;11.07;96.50;98664.66;4140320;28;20237;-45
2023/05/16 08:53:32;;;;;;;0.88;0.88;;;;;;;11.06;96.13;98673.97;4126834;28;20206;-45
2023/05/16 08:55:35;;;;;;;0.65;0.60;;;;;;;11.08;95.60;98669.06;4135026;28;20849;-45
2023/05/16 08:57:37;;;;;;;0.70;0.70;;;;;;;11.20;96.27;98672.53;4139875;28;20730;-45
2023/05/16 08:59:40;;;;;;;1.00;0.90;;;;;;;11.07;94.44;98683.81;4139128;28;20312;-46
2023/05/16 09:01:41;;;;;;;0.60;0.60;;;;;;;11.23;96.16;98669.28;4121943;28;20244;-44
2023/05/16 09:03:44;;;;;;;3.50;0.80;;;;;;;11.10;94.78;98677.84;4140860;28;20201;-45
2023/05/16 09:05:46;;;;;;;0.73;0.73;;;;;;;11.05;95.55;98680.50;4140907;28;20205;-45
2023/05/16 09:07:49;;;;;;;2.33;1.20;;;;;;;10.87;96.11;98688.13;4142632;28;20651;-45
2023/05/16 09:09:53;;;;;;;1.17;0.90;;;;;;;11.01;97.50;98687.56;4135826;28;20307;-44
2023/05/16 09:11:58;;;;;;;0.60;0.60;;;;;;;10.97;97.01;98683.66;4124984;28;20225;-46
2023/05/16 09:14:00;;;;;;;0.75;0.75;;;;;;;10.98;96.32;98690.78;4136078;28;20261;-46
2023/05/16 09:16:19;;;;;;;0.75;0.75;;;;;;;11.03;97.23;98692.81;4136850;28;20229;-46
2023/05/16 09:18:21;;;;;;;2.45;0.90;;;;;;;11.05;96.80;98690.63;4135296;28;20218;-45
2023/05/16 09:20:22;;;;;;;1.02;0.90;;;;;;;10.92;98.07;98697.25;4142965;28;20582;-44
2023/05/16 09:22:24;;;;;;;2.30;1.00;;;;;;;10.81;98.48;98699.25;4138089;28;20205;-45
2023/05/16 09:24:26;;;;;;;1.30;0.70;;;;;;;10.91;98.98;98701.06;4127175;28;20214;-44
2023/05/16 09:26:28;;;;;;;1.00;0.90;;;;;;;10.84;99.37;98700.41;4142036;28;20263;-45
2023/05/16 09:28:30;;;;;;;0.77;0.77;;;;;;;10.94;99.75;98703.31;4141574;28;20210;-45
2023/05/16 09:30:33;;;;;;;1.17;0.80;;;;;;;11.11;99.73;98701.41;4134671;28;20243;-44